Time,TemperatureF,DewpointF,PressureIn,WindDirection,WindDirectionDegrees,WindSpeedMPH,WindSpeedGustMPH,Humidity,HourlyPrecipIn,Conditions,Clouds,dailyrainin,SoftwareType,DateUTC
2013-03-31 00:03:00,63.0,-99.9,-100.00,WNW,290,13.0,20.0,-999,-99.99,,,-99.99,,2013-03-31 04:03:00,
2013-03-31 00:13:00,63.0,-99.9,-100.00,WNW,290,13.0,20.0,-999,-99.99,,,-99.99,,2013-03-31 04:13:00,
2013-03-31 00:23:00,63.0,-99.9,-100.00,WNW,290,13.0,20.0,-999,-99.99,,,-99.99,,2013-03-31 04:23:00,
2013-03-31 00:33:00,63.0,-99.9,-100.00,WNW,290,13.0,20.0,-999,-99.99,,,-99.99,,2013-03-31 04:33:00,
2013-03-31 00:40:00,60.0,-99.9,-100.00,North,360,5.0,6.0,-999,-99.99,,,-99.99,,2013-03-31 04:40:00,
2013-03-31 01:02:00,60.0,-99.9,-100.00,North,360,5.0,6.0,-999,-99.99,,,-99.99,,2013-03-31 05:02:00,
2013-03-31 01:13:00,60.0,-99.9,-100.00,North,360,5.0,6.0,-999,-99.99,,,-99.99,,2013-03-31 05:13:00,
2013-03-31 01:22:00,60.0,-99.9,-100.00,North,360,5.0,6.0,-999,-99.99,,,-99.99,,2013-03-31 05:22:00,
2013-03-31 01:32:00,60.0,-99.9,-100.00,North,360,5.0,6.0,-999,-99.99,,,-99.99,,2013-03-31 05:32:00,
2013-03-31 01:40:00,57.0,-99.9,-100.00,North,0,0.0,2.0,-999,-99.99,,,-99.99,,2013-03-31 05:40:00,
2013-03-31 02:02:00,57.0,-99.9,-100.00,North,0,0.0,2.0,-999,-99.99,,,-99.99,,2013-03-31 06:02:00,
2013-03-31 02:12:00,57.0,-99.9,-100.00,North,0,0.0,2.0,-999,-99.99,,,-99.99,,2013-03-31 06:12:00,
2013-03-31 02:23:00,57.0,-99.9,-100.00,North,0,0.0,2.0,-999,-99.99,,,-99.99,,2013-03-31 06:23:00,
2013-03-31 02:33:00,57.0,-99.9,-100.00,North,0,0.0,2.0,-999,-99.99,,,-99.99,,2013-03-31 06:33:00,
2013-03-31 02:40:00,57.0,-99.9,-100.00,South,190,2.0,3.0,-999,-99.99,,,-99.99,,2013-03-31 06:40:00,
2013-03-31 03:02:00,57.0,-99.9,-100.00,South,190,2.0,3.0,-999,-99.99,,,-99.99,,2013-03-31 07:02:00,
2013-03-31 03:12:00,57.0,-99.9,-100.00,South,190,2.0,3.0,-999,-99.99,,,-99.99,,2013-03-31 07:12:00,
2013-03-31 03:22:00,57.0,-99.9,-100.00,South,190,2.0,3.0,-999,-99.99,,,-99.99,,2013-03-31 07:22:00,
2013-03-31 03:33:00,57.0,-99.9,-100.00,South,190,2.0,3.0,-999,-99.99,,,-99.99,,2013-03-31 07:33:00,
2013-03-31 03:40:00,57.0,-99.9,-100.00,North,0,0.0,1.0,-999,-99.99,,,-99.99,,2013-03-31 07:40:00,
2013-03-31 04:02:00,57.0,-99.9,-100.00,North,0,0.0,1.0,-999,-99.99,,,-99.99,,2013-03-31 08:02:00,
2013-03-31 04:13:00,57.0,-99.9,-100.00,North,0,0.0,1.0,-999,-99.99,,,-99.99,,2013-03-31 08:13:00,
2013-03-31 04:22:00,57.0,-99.9,-100.00,North,0,0.0,1.0,-999,-99.99,,,-99.99,,2013-03-31 08:22:00,
2013-03-31 04:33:00,57.0,-99.9,-100.00,North,0,0.0,1.0,-999,-99.99,,,-99.99,,2013-03-31 08:33:00,
2013-03-31 04:40:00,56.0,-99.9,-100.00,South,190,5.0,6.0,-999,-99.99,,,-99.99,,2013-03-31 08:40:00,
2013-03-31 05:02:00,56.0,-99.9,-100.00,South,190,5.0,6.0,-999,-99.99,,,-99.99,,2013-03-31 09:02:00,
2013-03-31 05:12:00,56.0,-99.9,-100.00,South,190,5.0,6.0,-999,-99.99,,,-99.99,,2013-03-31 09:12:00,
2013-03-31 05:22:00,56.0,-99.9,-100.00,South,190,5.0,6.0,-999,-99.99,,,-99.99,,2013-03-31 09:22:00,
2013-03-31 05:33:00,56.0,-99.9,-100.00,South,190,5.0,6.0,-999,-99.99,,,-99.99,,2013-03-31 09:33:00,
2013-03-31 05:40:00,60.0,-99.9,-100.00,South,190,2.0,14.0,-999,-99.99,,,-99.99,,2013-03-31 09:40:00,
2013-03-31 06:03:00,60.0,-99.9,-100.00,South,190,2.0,14.0,-999,-99.99,,,-99.99,,2013-03-31 10:03:00,
2013-03-31 06:13:00,60.0,-99.9,-100.00,South,190,2.0,14.0,-999,-99.99,,,-99.99,,2013-03-31 10:13:00,
2013-03-31 06:24:00,60.0,-99.9,-100.00,South,190,2.0,14.0,-999,-99.99,,,-99.99,,2013-03-31 10:24:00,
2013-03-31 06:33:00,60.0,-99.9,-100.00,South,190,2.0,14.0,-999,-99.99,,,-99.99,,2013-03-31 10:33:00,
2013-03-31 06:40:00,60.0,-99.9,-100.00,SSE,160,2.0,10.0,-999,-99.99,,,-99.99,,2013-03-31 10:40:00,
2013-03-31 07:03:00,60.0,-99.9,-100.00,SSE,160,2.0,10.0,-999,-99.99,,,-99.99,,2013-03-31 11:03:00,
2013-03-31 07:12:00,60.0,-99.9,-100.00,SSE,160,2.0,10.0,-999,-99.99,,,-99.99,,2013-03-31 11:12:00,
2013-03-31 07:23:00,60.0,-99.9,-100.00,SSE,160,2.0,10.0,-999,-99.99,,,-99.99,,2013-03-31 11:23:00,
2013-03-31 07:33:00,60.0,-99.9,-100.00,SSE,160,2.0,10.0,-999,-99.99,,,-99.99,,2013-03-31 11:33:00,
2013-03-31 07:40:00,59.0,-99.9,-100.00,SSW,200,5.0,10.0,-999,-99.99,,,-99.99,,2013-03-31 11:40:00,
2013-03-31 08:03:00,59.0,-99.9,-100.00,SSW,200,5.0,10.0,-999,-99.99,,,-99.99,,2013-03-31 12:03:00,
2013-03-31 08:12:00,59.0,-99.9,-100.00,SSW,200,5.0,10.0,-999,-99.99,,,-99.99,,2013-03-31 12:12:00,
2013-03-31 08:22:00,59.0,-99.9,-100.00,SSW,200,5.0,10.0,-999,-99.99,,,-99.99,,2013-03-31 12:22:00,
2013-03-31 08:33:00,59.0,-99.9,-100.00,SSW,200,5.0,10.0,-999,-99.99,,,-99.99,,2013-03-31 12:33:00,
2013-03-31 08:40:00,60.0,-99.9,-100.00,South,170,2.0,11.0,-999,-99.99,,,-99.99,,2013-03-31 12:40:00,
2013-03-31 09:02:00,60.0,-99.9,-100.00,South,170,2.0,11.0,-999,-99.99,,,-99.99,,2013-03-31 13:02:00,
2013-03-31 09:12:00,60.0,-99.9,-100.00,South,170,2.0,11.0,-999,-99.99,,,-99.99,,2013-03-31 13:12:00,
2013-03-31 09:23:00,60.0,-99.9,-100.00,South,170,2.0,11.0,-999,-99.99,,,-99.99,,2013-03-31 13:23:00,
2013-03-31 09:33:00,60.0,-99.9,-100.00,South,170,2.0,11.0,-999,-99.99,,,-99.99,,2013-03-31 13:33:00,
2013-03-31 09:40:00,61.0,-99.9,-100.00,SW,230,3.0,9.0,-999,-99.99,,,-99.99,,2013-03-31 13:40:00,
2013-03-31 10:03:00,61.0,-99.9,-100.00,SW,230,3.0,9.0,-999,-99.99,,,-99.99,,2013-03-31 14:03:00,
2013-03-31 10:12:00,61.0,-99.9,-100.00,SW,230,3.0,9.0,-999,-99.99,,,-99.99,,2013-03-31 14:12:00,
2013-03-31 10:23:00,61.0,-99.9,-100.00,SW,230,3.0,9.0,-999,-99.99,,,-99.99,,2013-03-31 14:23:00,
2013-03-31 10:33:00,61.0,-99.9,-100.00,SW,230,3.0,9.0,-999,-99.99,,,-99.99,,2013-03-31 14:33:00,
2013-03-31 10:40:00,64.0,-99.9,-100.00,SSW,210,7.0,18.0,-999,-99.99,,,-99.99,,2013-03-31 14:40:00,
2013-03-31 11:03:00,64.0,-99.9,-100.00,SSW,210,7.0,18.0,-999,-99.99,,,-99.99,,2013-03-31 15:03:00,
2013-03-31 11:13:00,64.0,-99.9,-100.00,SSW,210,7.0,18.0,-999,-99.99,,,-99.99,,2013-03-31 15:13:00,
2013-03-31 11:23:00,64.0,-99.9,-100.00,SSW,210,7.0,18.0,-999,-99.99,,,-99.99,,2013-03-31 15:23:00,
2013-03-31 11:34:00,64.0,-99.9,-100.00,SSW,210,7.0,18.0,-999,-99.99,,,-99.99,,2013-03-31 15:34:00,
2013-03-31 11:40:00,66.0,-99.9,-100.00,West,260,10.0,16.0,-999,-99.99,,,-99.99,,2013-03-31 15:40:00,
2013-03-31 12:03:00,66.0,-99.9,-100.00,West,260,10.0,16.0,-999,-99.99,,,-99.99,,2013-03-31 16:03:00,
2013-03-31 12:14:00,66.0,-99.9,-100.00,West,260,10.0,16.0,-999,-99.99,,,-99.99,,2013-03-31 16:14:00,
2013-03-31 12:23:00,66.0,-99.9,-100.00,West,260,10.0,16.0,-999,-99.99,,,-99.99,,2013-03-31 16:23:00,
2013-03-31 12:34:00,66.0,-99.9,-100.00,West,260,10.0,16.0,-999,-99.99,,,-99.99,,2013-03-31 16:34:00,
2013-03-31 12:40:00,69.0,-99.9,-100.00,SW,220,6.0,21.0,-999,-99.99,,,-99.99,,2013-03-31 16:40:00,
2013-03-31 13:03:00,69.0,-99.9,-100.00,SW,220,6.0,21.0,-999,-99.99,,,-99.99,,2013-03-31 17:03:00,
2013-03-31 13:13:00,69.0,-99.9,-100.00,SW,220,6.0,21.0,-999,-99.99,,,-99.99,,2013-03-31 17:13:00,
2013-03-31 13:23:00,69.0,-99.9,-100.00,SW,220,6.0,21.0,-999,-99.99,,,-99.99,,2013-03-31 17:23:00,
2013-03-31 13:33:00,69.0,-99.9,-100.00,SW,220,6.0,21.0,-999,-99.99,,,-99.99,,2013-03-31 17:33:00,
2013-03-31 13:40:00,70.0,-99.9,-100.00,SSW,200,2.0,18.0,-999,-99.99,,,-99.99,,2013-03-31 17:40:00,
2013-03-31 14:03:00,70.0,-99.9,-100.00,SSW,200,2.0,18.0,-999,-99.99,,,-99.99,,2013-03-31 18:03:00,
2013-03-31 14:13:00,70.0,-99.9,-100.00,SSW,200,2.0,18.0,-999,-99.99,,,-99.99,,2013-03-31 18:13:00,
2013-03-31 14:22:00,70.0,-99.9,-100.00,SSW,200,2.0,18.0,-999,-99.99,,,-99.99,,2013-03-31 18:22:00,
2013-03-31 14:33:00,70.0,-99.9,-100.00,SSW,200,2.0,18.0,-999,-99.99,,,-99.99,,2013-03-31 18:33:00,
2013-03-31 14:40:00,69.0,-99.9,-100.00,West,260,13.0,15.0,-999,-99.99,,,-99.99,,2013-03-31 18:40:00,
2013-03-31 15:03:00,69.0,-99.9,-100.00,West,260,13.0,15.0,-999,-99.99,,,-99.99,,2013-03-31 19:03:00,
2013-03-31 15:13:00,69.0,-99.9,-100.00,West,260,13.0,15.0,-999,-99.99,,,-99.99,,2013-03-31 19:13:00,
2013-03-31 15:23:00,69.0,-99.9,-100.00,West,260,13.0,15.0,-999,-99.99,,,-99.99,,2013-03-31 19:23:00,
2013-03-31 15:33:00,69.0,-99.9,-100.00,West,260,13.0,15.0,-999,-99.99,,,-99.99,,2013-03-31 19:33:00,
2013-03-31 16:03:00,72.0,-99.9,-100.00,WSW,250,7.0,15.0,-999,-99.99,,,-99.99,,2013-03-31 20:03:00,
2013-03-31 16:13:00,72.0,-99.9,-100.00,WSW,250,7.0,15.0,-999,-99.99,,,-99.99,,2013-03-31 20:13:00,
2013-03-31 16:23:00,72.0,-99.9,-100.00,WSW,250,7.0,15.0,-999,-99.99,,,-99.99,,2013-03-31 20:23:00,
2013-03-31 16:34:00,72.0,-99.9,-100.00,WSW,250,7.0,15.0,-999,-99.99,,,-99.99,,2013-03-31 20:34:00,
2013-03-31 16:40:00,69.0,-99.9,-100.00,West,280,18.0,29.0,-999,-99.99,,,-99.99,,2013-03-31 20:40:00,
2013-03-31 17:03:00,69.0,-99.9,-100.00,West,280,18.0,29.0,-999,-99.99,,,-99.99,,2013-03-31 21:03:00,
2013-03-31 17:13:00,69.0,-99.9,-100.00,West,280,18.0,29.0,-999,-99.99,,,-99.99,,2013-03-31 21:13:00,
2013-03-31 17:23:00,69.0,-99.9,-100.00,West,280,18.0,29.0,-999,-99.99,,,-99.99,,2013-03-31 21:23:00,
2013-03-31 17:34:00,69.0,-99.9,-100.00,West,280,18.0,29.0,-999,-99.99,,,-99.99,,2013-03-31 21:34:00,
2013-03-31 17:40:00,67.0,-99.9,-100.00,North,0,0.0,2.0,-999,-99.99,,,-99.99,,2013-03-31 21:40:00,
2013-03-31 18:04:00,67.0,-99.9,-100.00,North,0,0.0,2.0,-999,-99.99,,,-99.99,,2013-03-31 22:04:00,
2013-03-31 18:13:00,67.0,-99.9,-100.00,North,0,0.0,2.0,-999,-99.99,,,-99.99,,2013-03-31 22:13:00,
2013-03-31 18:24:00,67.0,-99.9,-100.00,North,0,0.0,2.0,-999,-99.99,,,-99.99,,2013-03-31 22:24:00,
2013-03-31 18:34:00,67.0,-99.9,-100.00,North,0,0.0,2.0,-999,-99.99,,,-99.99,,2013-03-31 22:34:00,
2013-03-31 18:40:00,67.0,-99.9,-100.00,SE,140,2.0,3.0,-999,-99.99,,,-99.99,,2013-03-31 22:40:00,
2013-03-31 19:03:00,67.0,-99.9,-100.00,SE,140,2.0,3.0,-999,-99.99,,,-99.99,,2013-03-31 23:03:00,
2013-03-31 19:13:00,67.0,-99.9,-100.00,SE,140,2.0,3.0,-999,-99.99,,,-99.99,,2013-03-31 23:13:00,
2013-03-31 19:23:00,67.0,-99.9,-100.00,SE,140,2.0,3.0,-999,-99.99,,,-99.99,,2013-03-31 23:23:00,
2013-03-31 19:33:00,67.0,-99.9,-100.00,SE,140,2.0,3.0,-999,-99.99,,,-99.99,,2013-03-31 23:33:00,
2013-03-31 19:40:00,66.0,-99.9,-100.00,North,0,0.0,1.0,-999,-99.99,,,-99.99,,2013-03-31 23:40:00,
2013-03-31 20:03:00,66.0,-99.9,-100.00,North,0,0.0,1.0,-999,-99.99,,,-99.99,,2013-04-01 00:03:00,
2013-03-31 20:13:00,66.0,-99.9,-100.00,North,0,0.0,1.0,-999,-99.99,,,-99.99,,2013-04-01 00:13:00,
2013-03-31 20:23:00,66.0,-99.9,-100.00,North,0,0.0,1.0,-999,-99.99,,,-99.99,,2013-04-01 00:23:00,
2013-03-31 20:33:00,66.0,-99.9,-100.00,North,0,0.0,1.0,-999,-99.99,,,-99.99,,2013-04-01 00:33:00,
2013-03-31 20:40:00,63.0,-99.9,-100.00,South,180,1.0,3.0,-999,-99.99,,,-99.99,,2013-04-01 00:40:00,
2013-03-31 21:03:00,63.0,-99.9,-100.00,South,180,1.0,3.0,-999,-99.99,,,-99.99,,2013-04-01 01:03:00,
2013-03-31 21:13:00,63.0,-99.9,-100.00,South,180,1.0,3.0,-999,-99.99,,,-99.99,,2013-04-01 01:13:00,
2013-03-31 21:23:00,63.0,-99.9,-100.00,South,180,1.0,3.0,-999,-99.99,,,-99.99,,2013-04-01 01:23:00,
2013-03-31 21:33:00,63.0,-99.9,-100.00,South,180,1.0,3.0,-999,-99.99,,,-99.99,,2013-04-01 01:33:00,
2013-03-31 21:40:00,63.0,-99.9,-100.00,South,180,5.0,6.0,-999,-99.99,,,-99.99,,2013-04-01 01:40:00,
2013-03-31 22:03:00,63.0,-99.9,-100.00,South,180,5.0,6.0,-999,-99.99,,,-99.99,,2013-04-01 02:03:00,
2013-03-31 22:13:00,63.0,-99.9,-100.00,South,180,5.0,6.0,-999,-99.99,,,-99.99,,2013-04-01 02:13:00,
2013-03-31 22:23:00,63.0,-99.9,-100.00,South,180,5.0,6.0,-999,-99.99,,,-99.99,,2013-04-01 02:23:00,
2013-03-31 22:33:00,63.0,-99.9,-100.00,South,180,5.0,6.0,-999,-99.99,,,-99.99,,2013-04-01 02:33:00,
2013-03-31 22:40:00,63.0,-99.9,-100.00,South,180,7.0,9.0,-999,-99.99,,,-99.99,,2013-04-01 02:40:00,
2013-03-31 23:03:00,63.0,-99.9,-100.00,South,180,7.0,9.0,-999,-99.99,,,-99.99,,2013-04-01 03:03:00,
2013-03-31 23:12:00,63.0,-99.9,-100.00,South,180,7.0,9.0,-999,-99.99,,,-99.99,,2013-04-01 03:12:00,
2013-03-31 23:23:00,63.0,-99.9,-100.00,South,180,7.0,9.0,-999,-99.99,,,-99.99,,2013-04-01 03:23:00,
2013-03-31 23:35:00,63.0,-99.9,-100.00,South,180,7.0,9.0,-999,-99.99,,,-99.99,,2013-04-01 03:35:00,
2013-03-31 23:40:00,64.0,-99.9,-100.00,North,0,0.0,10.0,-999,-99.99,,,-99.99,,2013-04-01 03:40:00,